Time;durP1;ratioP1;P1;durP2;ratioP2;P2;SDS_P1;SDS_P2;PMS_P1;PMS_P2;Temp;Humidity;BMP_temperature;BMP_pressure;BME280_temperature;BME280_humidity;BME280_pressure;Samples;Min_cycle;Max_cycle;Signal;HPM_P1;HPM_P2
2023/07/26 00:01:05;;;;;;;4.10;3.70;;;;;;;18.47;58.08;98971.22;5064290;28;20201;-70
2023/07/26 00:03:35;;;;;;;4.97;3.75;;;;;;;18.46;58.28;98970.38;5061230;28;20206;-68
2023/07/26 00:06:03;;;;;;;5.72;3.58;;;;;;;18.46;58.23;98974.78;5062184;28;20631;-67
2023/07/26 00:08:32;;;;;;;4.72;3.10;;;;;;;18.48;58.33;98978.09;5063949;28;20271;-67
2023/07/26 00:11:03;;;;;;;4.25;3.40;;;;;;;18.46;58.37;98975.59;5069239;28;20725;-70
2023/07/26 00:13:31;;;;;;;7.05;3.60;;;;;;;18.43;58.44;98981.00;5068573;28;20566;-69
2023/07/26 00:15:59;;;;;;;4.30;3.42;;;;;;;18.43;58.77;98983.59;5065739;28;20664;-69
2023/07/26 00:18:30;;;;;;;8.90;3.95;;;;;;;18.42;58.67;98979.34;5063271;28;20197;-68
2023/07/26 00:21:00;;;;;;;4.72;3.58;;;;;;;18.41;59.07;98979.41;5068673;28;20266;-67
2023/07/26 00:23:28;;;;;;;4.68;3.65;;;;;;;18.42;58.99;98991.53;5070077;28;20205;-67
2023/07/26 00:25:57;;;;;;;4.07;3.25;;;;;;;18.39;59.10;98984.72;5066675;28;20205;-67
2023/07/26 00:28:25;;;;;;;5.78;3.78;;;;;;;18.38;59.11;98988.28;5067994;28;20339;-67
2023/07/26 00:30:53;;;;;;;5.38;3.00;;;;;;;18.39;59.31;98991.72;5060081;28;20620;-68
2023/07/26 00:33:21;;;;;;;5.40;3.53;;;;;;;18.40;59.52;98996.00;5063835;28;20719;-68
2023/07/26 00:35:50;;;;;;;5.50;3.30;;;;;;;18.41;59.74;99013.31;5065980;28;20262;-68
2023/07/26 00:38:19;;;;;;;5.10;3.67;;;;;;;18.38;59.74;99008.31;5065948;28;20220;-68
2023/07/26 00:40:47;;;;;;;4.13;3.45;;;;;;;18.32;59.97;99009.50;5074637;28;20254;-68
2023/07/26 00:43:16;;;;;;;7.30;3.50;;;;;;;18.35;60.09;99015.38;5068305;28;20242;-68
2023/07/26 00:45:45;;;;;;;5.13;3.25;;;;;;;18.35;59.98;99020.59;5068583;28;20651;-68
2023/07/26 00:48:14;;;;;;;5.72;3.38;;;;;;;18.35;60.12;99015.38;5067004;28;20221;-66
2023/07/26 00:50:46;;;;;;;4.78;3.60;;;;;;;18.39;60.03;99020.41;5064197;28;20606;-68
2023/07/26 00:53:15;;;;;;;5.70;3.53;;;;;;;18.39;59.80;99023.03;5073941;28;20202;-67
2023/07/26 00:55:46;;;;;;;7.63;3.67;;;;;;;18.39;59.99;99028.22;5071621;28;20201;-67
2023/07/26 00:58:15;;;;;;;3.65;3.13;;;;;;;18.34;60.24;99028.53;5066908;28;20238;-68
2023/07/26 01:00:45;;;;;;;3.63;3.05;;;;;;;18.32;60.65;99036.41;5074178;28;20737;-68
2023/07/26 01:03:14;;;;;;;3.65;2.97;;;;;;;18.29;60.70;99035.75;5069520;28;20206;-68
2023/07/26 01:05:54;;;;;;;2.92;2.70;;;;;;;18.31;61.41;99032.13;5070949;28;20255;-68
2023/07/26 01:08:34;;;;;;;3.47;2.47;;;;;;;18.42;61.35;99043.72;5068276;28;20601;-68
2023/07/26 01:11:12;;;;;;;2.90;2.42;;;;;;;18.41;62.61;99040.25;5047504;28;20201;-68
2023/07/26 01:13:47;;;;;;;3.83;2.60;;;;;;;18.42;63.22;99046.31;5074340;28;20617;-68
2023/07/26 01:16:17;;;;;;;5.35;2.45;;;;;;;18.42;63.81;99036.72;5074230;28;20232;-67
2023/07/26 01:18:45;;;;;;;4.72;2.45;;;;;;;18.46;64.23;99045.19;5067182;28;20208;-67
2023/07/26 01:21:14;;;;;;;6.10;2.15;;;;;;;18.50;65.05;99039.69;5072807;28;20720;-68
2023/07/26 01:23:43;;;;;;;3.05;2.05;;;;;;;18.53;65.22;99043.91;5070225;28;20255;-68
2023/07/26 01:26:12;;;;;;;4.07;2.55;;;;;;;18.50;65.31;99044.91;5070526;28;20251;-68
2023/07/26 01:28:39;;;;;;;4.25;2.30;;;;;;;18.47;65.89;99039.03;5064546;28;20636;-69
2023/07/26 01:31:10;;;;;;;3.17;2.40;;;;;;;18.39;65.89;99034.28;5069161;28;20581;-67
2023/07/26 01:33:38;;;;;;;3.97;2.67;;;;;;;18.38;66.39;99037.84;5060737;28;20255;-67
2023/07/26 01:36:08;;;;;;;3.13;2.55;;;;;;;18.38;66.93;99044.81;5070989;28;20205;-67
2023/07/26 01:38:37;;;;;;;3.10;2.75;;;;;;;18.37;67.12;99056.16;5069734;28;20201;-67
2023/07/26 01:41:08;;;;;;;3.35;2.80;;;;;;;18.30;66.66;99059.16;5069258;28;20296;-67
2023/07/26 01:43:38;;;;;;;2.70;2.30;;;;;;;18.30;67.22;99060.94;5068567;28;20259;-68
2023/07/26 01:46:07;;;;;;;3.03;2.50;;;;;;;18.30;67.25;99064.38;5068735;28;20299;-67
2023/07/26 01:48:35;;;;;;;7.03;3.05;;;;;;;18.31;67.67;99063.44;5067281;28;20213;-67
2023/07/26 01:51:06;;;;;;;3.63;2.60;;;;;;;18.31;68.03;99067.81;5067161;28;20375;-70
2023/07/26 01:53:34;;;;;;;4.20;3.20;;;;;;;18.23;67.98;99060.44;5061723;28;20592;-67
2023/07/26 01:56:03;;;;;;;6.03;3.08;;;;;;;18.22;68.44;99066.56;5068827;28;20296;-67
2023/07/26 01:58:32;;;;;;;5.82;3.80;;;;;;;18.20;68.50;99050.19;5060215;28;20819;-67
2023/07/26 02:01:04;;;;;;;5.55;4.07;;;;;;;18.22;68.35;99047.47;5071033;28;20205;-68
2023/07/26 02:03:32;;;;;;;3.95;3.63;;;;;;;18.14;68.53;99034.91;5071332;28;20201;-67
2023/07/26 02:06:00;;;;;;;6.20;3.42;;;;;;;18.08;68.82;99040.50;5072360;28;20271;-66
2023/07/26 02:08:29;;;;;;;7.45;3.85;;;;;;;18.00;69.19;99040.91;5069998;28;20339;-68
2023/07/26 02:10:58;;;;;;;6.60;3.60;;;;;;;17.96;69.35;99056.81;5063540;28;20210;-68
2023/07/26 02:13:26;;;;;;;5.90;4.20;;;;;;;17.95;69.42;99055.16;5066460;28;20677;-67
2023/07/26 02:15:56;;;;;;;4.80;3.60;;;;;;;17.96;69.43;99051.59;5067259;28;20561;-67
2023/07/26 02:18:26;;;;;;;7.05;3.58;;;;;;;18.00;69.42;99048.72;5061965;28;20205;-67
2023/07/26 02:20:54;;;;;;;3.83;3.33;;;;;;;18.04;69.31;99052.88;5070390;28;20197;-67
2023/07/26 02:23:22;;;;;;;3.75;3.22;;;;;;;18.07;68.89;99051.81;5071747;28;20715;-68
2023/07/26 02:25:50;;;;;;;5.13;3.78;;;;;;;18.11;69.03;99061.13;5065867;28;20579;-68
2023/07/26 02:28:18;;;;;;;5.80;3.75;;;;;;;18.14;68.94;99057.53;5066641;28;20255;-68
2023/07/26 02:30:46;;;;;;;5.90;3.75;;;;;;;18.14;68.66;99052.31;5069071;28;20258;-68
2023/07/26 02:33:18;;;;;;;6.10;3.40;;;;;;;18.16;68.55;99059.13;5072917;28;20240;-68
2023/07/26 02:35:47;;;;;;;6.05;3.90;;;;;;;18.14;68.32;99058.34;5078638;28;20538;-69
2023/07/26 02:38:16;;;;;;;5.30;3.13;;;;;;;18.16;68.43;99059.13;5075474;28;20668;-70
2023/07/26 02:40:44;;;;;;;5.05;3.63;;;;;;;18.23;68.16;99057.00;5054597;28;20252;-68
2023/07/26 02:43:12;;;;;;;6.07;3.75;;;;;;;18.26;67.88;99060.28;5071716;28;20742;-68
2023/07/26 02:45:54;;;;;;;4.35;3.50;;;;;;;18.27;67.59;99053.28;5077701;28;20300;-68
2023/07/26 02:48:24;;;;;;;4.57;3.20;;;;;;;18.26;67.47;99048.97;5069188;28;20244;-67
2023/07/26 02:50:52;;;;;;;6.40;3.58;;;;;;;18.23;67.67;99044.81;5068098;28;20201;-67
2023/07/26 02:53:20;;;;;;;3.58;3.15;;;;;;;18.22;67.62;99056.13;5071972;28;20259;-67
2023/07/26 02:55:49;;;;;;;3.78;3.47;;;;;;;18.17;67.77;99059.97;5070564;28;20232;-67
2023/07/26 02:58:17;;;;;;;4.30;3.70;;;;;;;18.13;67.81;99071.50;5070532;28;20209;-68
2023/07/26 03:00:45;;;;;;;4.55;3.55;;;;;;;18.07;68.33;99072.69;5067379;28;20298;-67
2023/07/26 03:03:13;;;;;;;6.22;4.07;;;;;;;18.03;68.12;99071.19;5069898;28;20243;-69
2023/07/26 03:05:43;;;;;;;4.25;3.90;;;;;;;18.01;68.11;99078.25;5068211;28;20205;-68
2023/07/26 03:08:13;;;;;;;5.32;3.70;;;;;;;17.97;68.02;99076.72;5065092;28;20656;-69
2023/07/26 03:10:42;;;;;;;7.15;3.90;;;;;;;17.93;68.07;99080.44;5063198;28;20217;-68
2023/07/26 03:13:10;;;;;;;5.75;3.60;;;;;;;17.94;68.33;99084.75;5064236;28;20221;-68
2023/07/26 03:15:40;;;;;;;4.03;3.63;;;;;;;17.96;68.09;99081.13;5069422;28;20205;-68
2023/07/26 03:18:11;;;;;;;5.65;4.82;;;;;;;18.01;68.29;99088.69;5068998;28;20201;-67
2023/07/26 03:20:40;;;;;;;7.90;4.43;;;;;;;18.03;67.73;99084.22;5071014;28;20267;-68
2023/07/26 03:23:09;;;;;;;7.25;4.47;;;;;;;18.09;67.53;99096.91;5069291;28;20205;-68
2023/07/26 03:25:38;;;;;;;5.00;4.43;;;;;;;18.13;67.56;99095.78;5067455;28;20657;-67
2023/07/26 03:28:06;;;;;;;4.93;3.88;;;;;;;18.18;67.47;99083.31;5065990;28;20616;-71
2023/07/26 03:30:35;;;;;;;5.18;4.18;;;;;;;18.25;67.47;99081.19;5067612;28;20221;-69
2023/07/26 03:33:03;;;;;;;4.70;3.92;;;;;;;18.31;67.49;99086.91;5058562;28;20325;-66
2023/07/26 03:35:32;;;;;;;4.60;4.20;;;;;;;18.32;67.42;99099.00;5067939;28;20668;-67
2023/07/26 03:38:00;;;;;;;4.75;4.00;;;;;;;18.29;67.63;99099.19;5059960;28;20213;-68
2023/07/26 03:40:30;;;;;;;5.50;3.65;;;;;;;18.25;67.39;99097.69;5066798;28;20205;-67
2023/07/26 03:42:58;;;;;;;5.35;3.97;;;;;;;18.24;67.34;99103.84;5061842;28;20213;-67
2023/07/26 03:45:27;;;;;;;5.82;3.45;;;;;;;18.26;66.89;99109.81;5067135;28;20284;-73
2023/07/26 03:47:55;;;;;;;5.72;3.83;;;;;;;18.30;66.86;99113.91;5066535;28;20208;-72
2023/07/26 03:50:24;;;;;;;5.70;4.07;;;;;;;18.33;67.11;99108.50;5067919;28;20235;-73
2023/07/26 03:52:52;;;;;;;8.05;4.03;;;;;;;18.39;66.74;99109.09;5066058;28;20288;-74
2023/07/26 03:55:20;;;;;;;5.32;3.97;;;;;;;18.43;66.56;99101.00;5070488;28;20212;-71
2023/07/26 03:57:50;;;;;;;4.72;3.72;;;;;;;18.49;66.45;99097.19;5065951;28;20656;-71
2023/07/26 04:00:18;;;;;;;3.97;3.58;;;;;;;18.56;66.05;99101.94;5070387;28;20205;-72
2023/07/26 04:02:47;;;;;;;3.78;3.40;;;;;;;18.64;65.88;99109.31;5044606;28;20201;-72
2023/07/26 04:05:15;;;;;;;3.78;3.30;;;;;;;18.68;65.57;99108.19;5061598;28;20206;-72
2023/07/26 04:07:43;;;;;;;5.63;3.80;;;;;;;18.68;65.45;99116.03;5070040;28;20201;-72
2023/07/26 04:10:12;;;;;;;5.88;3.70;;;;;;;18.63;65.77;99125.03;5067436;28;20213;-72
2023/07/26 04:12:40;;;;;;;5.72;4.28;;;;;;;18.48;66.01;99121.56;5070492;28;20250;-72
2023/07/26 04:15:11;;;;;;;4.95;3.22;;;;;;;18.45;66.47;99121.78;5061248;28;20233;-72
2023/07/26 04:17:39;;;;;;;4.57;3.38;;;;;;;18.44;66.34;99125.28;5068653;28;20197;-74
2023/07/26 04:20:08;;;;;;;8.00;3.63;;;;;;;18.46;66.48;99126.06;5066507;28;20564;-72
2023/07/26 04:22:36;;;;;;;6.00;3.90;;;;;;;18.48;66.29;99129.41;5066636;28;20209;-72
2023/07/26 04:25:05;;;;;;;10.00;4.10;;;;;;;18.48;66.47;99127.63;5070255;28;20259;-71
2023/07/26 04:27:34;;;;;;;6.20;3.80;;;;;;;18.57;66.51;99132.31;5068662;28;20309;-73
2023/07/26 04:30:03;;;;;;;5.38;3.67;;;;;;;18.70;66.18;99134.19;5067472;28;20217;-73
2023/07/26 04:32:32;;;;;;;4.72;3.40;;;;;;;18.73;65.33;99139.28;5067683;28;20260;-72
2023/07/26 04:35:01;;;;;;;3.78;2.95;;;;;;;18.75;64.71;99148.69;5068008;28;20677;-72
2023/07/26 04:37:29;;;;;;;4.68;2.75;;;;;;;18.76;64.21;99145.16;5069030;28;20209;-71
2023/07/26 04:39:57;;;;;;;4.25;2.45;;;;;;;18.86;63.81;99149.84;5062000;28;20228;-70
2023/07/26 04:42:25;;;;;;;5.18;2.53;;;;;;;18.96;63.02;99145.72;5068419;28;20259;-72
2023/07/26 04:44:53;;;;;;;2.67;2.22;;;;;;;19.06;62.01;99142.44;5070236;28;20266;-73
2023/07/26 04:47:22;;;;;;;2.78;2.10;;;;;;;19.14;61.11;99139.38;5065255;28;20201;-72
2023/07/26 04:49:52;;;;;;;3.95;2.50;;;;;;;19.29;60.77;99143.69;5063670;28;20228;-73
2023/07/26 04:52:20;;;;;;;3.38;2.25;;;;;;;19.45;60.10;99148.78;5069963;28;20208;-72
2023/07/26 04:54:49;;;;;;;3.03;1.88;;;;;;;19.53;58.51;99146.50;5065773;28;20197;-72
2023/07/26 04:57:25;;;;;;;1.73;1.63;;;;;;;19.60;58.12;99146.13;5064687;28;20197;-72
2023/07/26 04:59:53;;;;;;;3.15;2.10;;;;;;;19.63;57.54;99146.81;5064136;28;20255;-74
2023/07/26 05:02:21;;;;;;;2.08;1.60;;;;;;;19.69;57.52;99151.63;5070452;28;20271;-72
2023/07/26 05:04:50;;;;;;;3.63;1.83;;;;;;;19.88;57.55;99159.16;5069663;28;20574;-72
2023/07/26 05:07:20;;;;;;;2.25;1.77;;;;;;;20.13;56.43;99163.63;5058542;28;20210;-73
2023/07/26 05:09:51;;;;;;;5.60;1.70;;;;;;;20.34;55.53;99153.56;5060813;28;20678;-73
2023/07/26 05:12:19;;;;;;;2.13;1.52;;;;;;;20.64;53.22;99160.34;5059854;28;20197;-72
2023/07/26 05:14:47;;;;;;;1.58;1.35;;;;;;;20.86;50.78;99159.72;5066110;28;20236;-73
2023/07/26 05:17:16;;;;;;;3.08;1.73;;;;;;;21.19;49.55;99164.41;5057235;28;20206;-71
2023/07/26 05:19:46;;;;;;;1.73;1.30;;;;;;;21.55;48.60;99157.59;5062769;28;20235;-72
2023/07/26 05:22:14;;;;;;;2.50;1.20;;;;;;;22.01;47.43;99155.09;5067903;28;20229;-70
2023/07/26 05:24:44;;;;;;;1.98;1.17;;;;;;;22.58;44.95;99145.69;5042001;28;20690;-71
2023/07/26 05:27:12;;;;;;;3.35;1.40;;;;;;;23.45;42.33;99152.06;5065809;28;20201;-71
2023/07/26 05:29:40;;;;;;;1.17;1.08;;;;;;;24.74;39.34;99155.63;5067060;28;20721;-72
2023/07/26 05:32:09;;;;;;;1.95;1.15;;;;;;;26.54;36.29;99155.66;5062487;28;20229;-71
2023/07/26 05:34:38;;;;;;;4.25;1.38;;;;;;;28.45;32.87;99152.38;5067720;28;20197;-70
2023/07/26 05:37:06;;;;;;;3.50;1.13;;;;;;;30.60;29.88;99147.53;5064576;28;20631;-71
2023/07/26 05:39:34;;;;;;;2.90;1.50;;;;;;;32.52;26.98;99155.97;5069121;28;20293;-69
2023/07/26 05:42:04;;;;;;;1.65;1.17;;;;;;;33.95;24.50;99155.63;5063297;28;20206;-71
2023/07/26 05:44:34;;;;;;;5.28;1.30;;;;;;;34.68;22.81;99158.16;5060786;28;20193;-68
2023/07/26 05:47:03;;;;;;;5.30;1.55;;;;;;;35.51;22.08;99164.44;5064591;28;20205;-69
2023/07/26 05:49:31;;;;;;;3.05;1.65;;;;;;;36.78;20.65;99160.09;5067939;28;20190;-68
2023/07/26 05:52:00;;;;;;;2.30;1.30;;;;;;;38.00;19.06;99161.09;5070451;28;20197;-69
2023/07/26 05:54:28;;;;;;;1.08;0.90;;;;;;;38.55;17.68;99172.09;5064081;28;20223;-69
2023/07/26 05:56:57;;;;;;;2.90;1.48;;;;;;;38.33;19.17;99177.84;5067336;28;20653;-68
2023/07/26 05:59:28;;;;;;;4.43;1.42;;;;;;;37.38;19.80;99188.47;5069894;28;20201;-68
2023/07/26 06:01:58;;;;;;;2.63;0.90;;;;;;;36.55;20.03;99192.75;5064764;28;20211;-71
2023/07/26 06:04:29;;;;;;;1.52;1.10;;;;;;;34.78;21.43;99204.16;5065390;28;20197;-69
2023/07/26 06:06:58;;;;;;;2.33;1.25;;;;;;;32.51;24.25;99204.97;5067856;28;20755;-71
2023/07/26 06:09:26;;;;;;;1.88;1.13;;;;;;;30.37;27.47;99215.66;5067830;28;20254;-70
2023/07/26 06:11:54;;;;;;;2.33;1.30;;;;;;;28.53;30.74;99214.22;5065524;28;20377;-70
2023/07/26 06:14:27;;;;;;;1.63;1.10;;;;;;;27.03;33.12;99220.69;5072154;28;20208;-68
2023/07/26 06:16:55;;;;;;;3.92;1.30;;;;;;;26.10;35.31;99222.09;5072331;28;20201;-68
2023/07/26 06:19:23;;;;;;;10.15;1.30;;;;;;;25.51;36.67;99223.69;5073017;28;20717;-70
2023/07/26 06:21:55;;;;;;;2.70;1.23;;;;;;;24.95;37.20;99226.72;5071480;28;20193;-68
2023/07/26 06:24:24;;;;;;;1.88;1.17;;;;;;;24.53;38.68;99231.16;5071502;28;20209;-70
2023/07/26 06:26:53;;;;;;;1.13;0.98;;;;;;;24.31;39.14;99226.78;5068469;28;20220;-69
2023/07/26 06:29:21;;;;;;;1.75;1.27;;;;;;;24.23;39.45;99226.53;5060898;28;20656;-71
2023/07/26 06:31:51;;;;;;;2.92;1.23;;;;;;;24.27;39.73;99226.19;5064206;28;20241;-70
2023/07/26 06:34:19;;;;;;;2.30;1.30;;;;;;;24.50;39.90;99226.97;5068098;28;20209;-69
2023/07/26 06:36:48;;;;;;;1.85;0.90;;;;;;;25.46;37.56;99215.38;5071094;28;20212;-71
2023/07/26 06:39:16;;;;;;;2.13;1.17;;;;;;;25.45;37.39;99218.16;5071255;28;20235;-72
2023/07/26 06:41:45;;;;;;;2.60;1.10;;;;;;;24.91;38.83;99219.22;5058963;28;20270;-72
2023/07/26 06:44:13;;;;;;;3.08;0.90;;;;;;;24.10;40.56;99211.75;5063969;28;20254;-71
2023/07/26 06:46:41;;;;;;;2.97;1.08;;;;;;;25.26;40.49;99213.63;5064831;28;20201;-68
2023/07/26 06:49:11;;;;;;;1.92;0.98;;;;;;;26.66;35.95;99212.69;5067493;28;20205;-67
2023/07/26 06:51:39;;;;;;;2.47;1.00;;;;;;;27.24;34.69;99217.03;5061814;28;20569;-69
2023/07/26 06:54:07;;;;;;;2.17;0.93;;;;;;;26.98;34.51;99222.91;5063848;28;20729;-69
2023/07/26 06:56:37;;;;;;;2.08;1.23;;;;;;;26.70;35.28;99227.28;5061021;28;20201;-68
2023/07/26 06:59:11;;;;;;;1.63;1.00;;;;;;;26.76;35.75;99231.16;5061655;28;20236;-72
2023/07/26 07:01:39;;;;;;;4.40;1.35;;;;;;;26.62;35.61;99229.78;5070237;28;20605;-68
2023/07/26 07:04:07;;;;;;;3.80;1.05;;;;;;;26.25;36.47;99233.06;5069294;28;20548;-70
2023/07/26 07:06:44;;;;;;;2.30;1.08;;;;;;;26.01;36.91;99241.41;5067927;28;20223;-70
2023/07/26 07:09:12;;;;;;;1.90;1.00;;;;;;;26.90;37.01;99230.72;5064590;28;20294;-69
2023/07/26 07:11:41;;;;;;;1.92;1.00;;;;;;;28.64;32.68;99226.41;5067467;28;20210;-72
2023/07/26 07:14:09;;;;;;;3.20;1.40;;;;;;;28.98;31.46;99220.34;5070863;28;20228;-70
2023/07/26 07:16:38;;;;;;;1.55;1.30;;;;;;;30.44;30.48;99217.47;5068515;28;20201;-69
2023/07/26 07:19:06;;;;;;;1.10;1.00;;;;;;;31.60;28.29;99219.00;5064526;28;20776;-67
2023/07/26 07:21:34;;;;;;;1.70;1.10;;;;;;;33.23;25.47;99228.50;5062097;28;20288;-65
2023/07/26 07:24:06;;;;;;;2.13;1.10;;;;;;;34.80;23.63;99223.53;5064671;28;20205;-63
2023/07/26 07:26:34;;;;;;;1.63;1.10;;;;;;;36.18;22.26;99219.09;5064593;28;20200;-67
2023/07/26 07:29:02;;;;;;;2.03;1.00;;;;;;;36.86;20.80;99217.09;5062567;28;20648;-65
2023/07/26 07:31:30;;;;;;;1.58;1.17;;;;;;;35.93;22.09;99216.13;5065120;28;20221;-70
2023/07/26 07:33:59;;;;;;;1.27;0.95;;;;;;;33.91;23.85;99226.50;5068364;28;20255;-66
2023/07/26 07:36:27;;;;;;;2.67;1.10;;;;;;;31.96;26.41;99235.31;5070066;28;20208;-65
2023/07/26 07:38:56;;;;;;;4.30;1.50;;;;;;;30.32;29.03;99232.91;5070710;28;20304;-71
2023/07/26 07:41:25;;;;;;;2.90;1.38;;;;;;;29.50;30.23;99231.81;5070835;28;20216;-69
2023/07/26 07:43:53;;;;;;;2.13;1.00;;;;;;;29.05;31.63;99230.25;5070381;28;20665;-59
2023/07/26 07:46:21;;;;;;;2.97;1.40;;;;;;;29.46;31.41;99232.25;5068499;28;20302;-56
2023/07/26 07:48:50;;;;;;;2.03;1.23;;;;;;;29.33;31.13;99222.91;5051616;28;20284;-65
2023/07/26 07:51:18;;;;;;;1.88;1.02;;;;;;;28.86;31.61;99222.41;5070058;28;20237;-64
2023/07/26 07:53:48;;;;;;;4.82;0.93;;;;;;;28.58;31.89;99219.09;5068249;28;20667;-65
2023/07/26 07:56:16;;;;;;;2.65;1.27;;;;;;;28.06;32.36;99225.03;5065589;28;20298;-76
2023/07/26 07:58:46;;;;;;;2.47;1.13;;;;;;;27.54;33.19;99213.28;5068287;28;20201;-76
2023/07/26 08:01:14;;;;;;;6.80;1.35;;;;;;;27.18;34.33;99224.59;5071934;28;20246;-76
2023/07/26 08:03:43;;;;;;;3.67;1.13;;;;;;;26.84;34.56;99215.44;5071723;28;20204;-76
2023/07/26 08:06:12;;;;;;;1.77;1.02;;;;;;;26.82;35.34;99209.47;5068572;28;20721;-76
2023/07/26 08:08:40;;;;;;;2.92;0.95;;;;;;;27.23;35.56;99213.56;5062980;28;20228;-74
2023/07/26 08:11:08;;;;;;;2.97;1.13;;;;;;;27.23;34.44;99218.84;5061692;28;20576;-66
2023/07/26 08:13:38;;;;;;;2.63;1.23;;;;;;;27.55;34.70;99220.28;5065269;28;20205;-68
2023/07/26 08:16:07;;;;;;;3.42;1.30;;;;;;;27.87;33.50;99217.19;5059086;28;20729;-65
2023/07/26 08:18:37;;;;;;;1.63;0.93;;;;;;;27.29;35.07;99218.28;5067407;28;20208;-67
2023/07/26 08:21:05;;;;;;;3.75;1.25;;;;;;;26.41;35.92;99222.00;5065505;28;20627;-68
2023/07/26 08:23:34;;;;;;;3.88;1.40;;;;;;;25.45;37.06;99224.25;5070202;28;20265;-68
2023/07/26 08:26:06;;;;;;;3.42;1.20;;;;;;;24.90;38.35;99228.94;5064030;28;20551;-68
2023/07/26 08:28:34;;;;;;;2.20;1.10;;;;;;;24.67;39.10;99232.63;5066760;28;20205;-68
2023/07/26 08:31:02;;;;;;;3.58;1.20;;;;;;;24.50;40.00;99234.03;5065650;28;20237;-68
2023/07/26 08:33:32;;;;;;;3.25;1.48;;;;;;;24.31;40.00;99232.88;5068167;28;20274;-68
2023/07/26 08:36:01;;;;;;;2.08;1.13;;;;;;;24.08;41.11;99229.50;5066821;28;20205;-68
2023/07/26 08:38:29;;;;;;;4.68;1.63;;;;;;;23.95;41.66;99220.06;5065911;28;20282;-68
2023/07/26 08:40:58;;;;;;;2.97;1.40;;;;;;;24.00;42.16;99221.34;5069047;28;20730;-68
2023/07/26 08:43:31;;;;;;;1.52;1.13;;;;;;;24.02;42.11;99237.88;5062165;28;20538;-68
2023/07/26 08:46:01;;;;;;;2.45;1.20;;;;;;;24.08;42.35;99236.53;5061944;28;20205;-67
2023/07/26 08:48:30;;;;;;;5.38;1.42;;;;;;;24.19;41.27;99244.41;5065197;28;20208;-69
2023/07/26 08:51:00;;;;;;;1.75;1.00;;;;;;;24.02;41.75;99243.13;5067314;28;20260;-67
2023/07/26 08:53:29;;;;;;;3.50;1.40;;;;;;;23.72;42.37;99254.28;5065769;28;20680;-69
2023/07/26 08:55:57;;;;;;;3.10;0.90;;;;;;;23.54;42.81;99247.81;5066922;28;20298;-68
2023/07/26 08:58:26;;;;;;;3.65;1.33;;;;;;;23.44;43.05;99245.06;5067939;28;20628;-69
2023/07/26 09:00:54;;;;;;;3.22;1.20;;;;;;;23.27;42.69;99250.78;5071244;28;20270;-68
2023/07/26 09:03:23;;;;;;;3.25;1.30;;;;;;;23.42;42.89;99256.63;5071810;28;20204;-68
2023/07/26 09:06:04;;;;;;;1.08;0.93;;;;;;;23.68;40.90;99257.28;5068645;28;20201;-69
2023/07/26 09:08:32;;;;;;;1.58;1.00;;;;;;;23.71;40.92;99247.34;5064737;28;20255;-68
2023/07/26 09:11:03;;;;;;;2.28;1.40;;;;;;;23.37;41.23;99251.75;5067473;28;20216;-69
2023/07/26 09:13:32;;;;;;;2.20;1.27;;;;;;;23.10;40.47;99255.53;5067760;28;20221;-67
2023/07/26 09:16:01;;;;;;;2.45;0.88;;;;;;;23.25;40.63;99257.94;5070242;28;20275;-67
2023/07/26 09:18:30;;;;;;;2.10;1.25;;;;;;;23.54;40.09;99240.75;5067204;28;20209;-68
2023/07/26 09:21:03;;;;;;;1.83;1.00;;;;;;;23.59;41.08;99251.75;5070939;28;20217;-68
2023/07/26 09:23:31;;;;;;;2.72;1.33;;;;;;;23.75;42.07;99247.94;5066382;28;20197;-68
2023/07/26 09:26:00;;;;;;;4.05;1.45;;;;;;;23.82;41.17;99246.50;5070258;28;20237;-68
2023/07/26 09:28:28;;;;;;;5.65;1.40;;;;;;;23.80;40.99;99240.53;5069474;28;20205;-67
2023/07/26 09:30:59;;;;;;;2.45;1.33;;;;;;;23.39;41.79;99250.69;5071532;28;20684;-68
2023/07/26 09:33:28;;;;;;;3.05;1.63;;;;;;;22.93;43.04;99248.09;5072110;28;20240;-68
2023/07/26 09:35:57;;;;;;;2.55;1.20;;;;;;;22.48;44.43;99242.66;5071134;28;20213;-67
2023/07/26 09:38:27;;;;;;;3.42;1.20;;;;;;;22.37;45.00;99247.84;5072791;28;20622;-68
2023/07/26 09:40:55;;;;;;;4.00;1.10;;;;;;;22.29;44.99;99242.34;5071579;28;20212;-69
2023/07/26 09:43:30;;;;;;;2.45;1.25;;;;;;;22.20;45.18;99251.69;5065594;28;20201;-69
2023/07/26 09:46:02;;;;;;;3.22;1.45;;;;;;;22.07;45.27;99262.22;5063916;28;20204;-68
2023/07/26 09:48:58;;;;;;;5.57;1.45;;;;;;;21.99;45.50;99267.19;5065095;28;20196;-68
2023/07/26 09:51:28;;;;;;;2.58;1.30;;;;;;;21.92;45.98;99260.69;5061124;28;20281;-68
2023/07/26 09:54:01;;;;;;;2.67;1.40;;;;;;;21.96;45.83;99267.38;5059838;28;20213;-68
2023/07/26 09:56:34;;;;;;;3.08;1.25;;;;;;;22.11;44.75;99266.28;5065804;28;20201;-70
2023/07/26 09:59:03;;;;;;;2.25;1.20;;;;;;;22.15;44.16;99270.41;5067991;28;20209;-68
2023/07/26 10:01:34;;;;;;;2.28;1.27;;;;;;;22.07;43.64;99275.34;5069406;28;20229;-70
2023/07/26 10:04:07;;;;;;;3.97;1.05;;;;;;;22.07;43.68;99274.50;5066068;28;20308;-68
2023/07/26 10:06:36;;;;;;;2.28;1.35;;;;;;;22.08;43.32;99277.00;5070993;28;20205;-69
2023/07/26 10:09:06;;;;;;;1.20;1.10;;;;;;;22.14;42.98;99287.09;5069708;28;20847;-68
2023/07/26 10:11:35;;;;;;;2.80;1.10;;;;;;;22.05;42.68;99287.72;5072074;28;20289;-68
2023/07/26 10:14:04;;;;;;;1.10;1.00;;;;;;;21.97;43.08;99290.03;5071585;28;20205;-69
2023/07/26 10:16:32;;;;;;;2.45;1.00;;;;;;;21.90;41.27;99284.38;5069807;28;20205;-69
2023/07/26 10:19:03;;;;;;;1.20;0.82;;;;;;;21.82;40.27;99283.25;5070041;28;20292;-68
2023/07/26 10:21:32;;;;;;;2.92;1.00;;;;;;;21.52;38.83;99284.44;5069760;28;20283;-68
2023/07/26 10:24:03;;;;;;;1.52;0.80;;;;;;;21.34;37.91;99276.06;5066420;28;20201;-69
2023/07/26 10:26:34;;;;;;;3.25;1.08;;;;;;;21.30;38.05;99278.97;5067677;28;20311;-69
2023/07/26 10:29:03;;;;;;;2.15;0.90;;;;;;;21.32;37.89;99287.56;5065425;28;20209;-69
2023/07/26 10:31:31;;;;;;;1.58;0.77;;;;;;;21.37;37.38;99290.75;5068045;28;20267;-68
2023/07/26 10:34:00;;;;;;;0.95;0.70;;;;;;;21.41;37.14;99292.22;5065191;28;20350;-62
2023/07/26 10:36:30;;;;;;;3.78;1.00;;;;;;;21.38;38.10;99298.50;5069161;28;20671;-63
2023/07/26 10:39:04;;;;;;;1.88;0.80;;;;;;;21.36;38.12;99300.41;5068547;28;20644;-61
2023/07/26 10:41:35;;;;;;;4.72;1.33;;;;;;;21.14;38.65;99294.91;5065946;28;20747;-68
2023/07/26 10:44:06;;;;;;;2.85;0.93;;;;;;;21.04;39.06;99291.22;5071667;28;20710;-62
2023/07/26 10:46:49;;;;;;;2.55;1.13;;;;;;;20.90;39.94;99292.94;5066392;28;20197;-61
2023/07/26 10:49:20;;;;;;;2.47;1.23;;;;;;;20.87;40.26;99297.56;5071076;28;20671;-61
2023/07/26 10:51:56;;;;;;;1.58;0.88;;;;;;;20.83;40.55;99299.53;5067073;28;20201;-61
2023/07/26 10:54:36;;;;;;;8.13;1.30;;;;;;;20.79;41.02;99295.44;5070074;28;20217;-62
2023/07/26 10:57:15;;;;;;;2.72;1.10;;;;;;;20.75;41.52;99289.56;5072463;28;20270;-62
2023/07/26 11:00:00;;;;;;;1.02;0.82;;;;;;;20.77;41.59;99291.22;5071092;28;20698;-63
2023/07/26 11:02:43;;;;;;;2.53;1.38;;;;;;;20.77;42.15;99286.00;5065189;28;20627;-64
2023/07/26 11:05:13;;;;;;;2.53;1.20;;;;;;;20.64;43.09;99286.81;5064268;28;20651;-61
2023/07/26 11:07:52;;;;;;;3.72;1.15;;;;;;;20.61;42.81;99280.94;5070687;28;20199;-62
2023/07/26 11:10:22;;;;;;;2.10;1.20;;;;;;;20.60;42.91;99282.72;5064975;28;20679;-62
2023/07/26 11:13:05;;;;;;;3.42;1.40;;;;;;;20.65;43.03;99290.25;5068936;28;20228;-64
2023/07/26 11:15:35;;;;;;;2.90;1.17;;;;;;;20.75;43.32;99284.34;5063947;28;20608;-62
2023/07/26 11:18:23;;;;;;;6.13;1.38;;;;;;;20.75;42.85;99294.81;5068918;28;20304;-62
2023/07/26 11:20:53;;;;;;;3.38;1.52;;;;;;;20.63;43.04;99295.63;5068323;28;20209;-63
2023/07/26 11:23:23;;;;;;;3.25;1.13;;;;;;;20.60;43.24;99295.81;5067571;28;20193;-62
2023/07/26 11:25:56;;;;;;;3.60;1.08;;;;;;;20.52;43.46;99302.50;5060507;28;20198;-62
2023/07/26 11:28:30;;;;;;;2.20;1.23;;;;;;;20.49;43.55;99313.94;5067050;28;20260;-63
2023/07/26 11:30:59;;;;;;;1.70;1.00;;;;;;;20.43;43.51;99314.34;5068856;28;20603;-64
2023/07/26 11:33:31;;;;;;;2.78;1.08;;;;;;;20.32;43.23;99316.78;5068744;28;20866;-63
2023/07/26 11:36:19;;;;;;;4.07;0.95;;;;;;;20.21;43.85;99320.94;5060972;28;20212;-62
2023/07/26 11:38:51;;;;;;;1.63;1.00;;;;;;;20.12;43.88;99326.75;5065868;28;20660;-69
2023/07/26 11:41:19;;;;;;;2.30;1.10;;;;;;;20.01;44.64;99323.97;5067779;28;20647;-64
2023/07/26 11:43:49;;;;;;;3.95;1.38;;;;;;;19.92;45.00;99332.34;5070074;28;20189;-62
2023/07/26 11:46:26;;;;;;;2.15;0.93;;;;;;;19.85;46.01;99344.16;5070748;28;20280;-62